Ash Township, Michigan
Current Conditions -  °F | °C
As of 3:20 AM on Monday 22 Dec 2014 (Local Time) from KTTF Reporting Station
Clear Clear  
Wind Chill: -2°   Ceiling: Unl
Heat Index: -2°   Visibility: 7mi
Dew Point: -3°   Wind: 3mph
Humidity: 93%   Direction: 110°ESE
Pressure: 30.11"   Gusts: NA
Location:  42.051°N, 83.409°W
Report Text: KTTF 220820Z AUTO 11003KT 7SM CLR M02/M03 A3011 RMK AO2
Loading
Personal Weather Stations






























Interactive Weather Map New forecast layout! Learn more

10-Day Weather Forecast

Advertisements
Track Severe Weather on mobile